createdAt,value
2019-05-16T00:01:19.369Z,5.53
2019-05-16T00:03:49.756Z,5.56
2019-05-16T00:06:20.096Z,5.66
2019-05-16T00:08:49.119Z,5.62
2019-05-16T00:11:18.227Z,5.75
2019-05-16T00:13:48.913Z,5.71
2019-05-16T00:16:18.858Z,5.61
2019-05-16T00:18:48.171Z,5.63
2019-05-16T00:21:17.932Z,5.73
2019-05-16T00:23:48.501Z,5.90
2019-05-16T00:26:19.837Z,5.95
2019-05-16T00:28:48.698Z,5.97
2019-05-16T00:31:18.370Z,5.91
2019-05-16T00:33:48.728Z,5.87
2019-05-16T00:36:18.941Z,5.74
2019-05-16T00:38:48.601Z,5.60
2019-05-16T00:41:18.074Z,5.57
2019-05-16T00:43:48.576Z,5.58
2019-05-16T00:46:20.116Z,5.59
2019-05-16T00:48:48.858Z,5.57
2019-05-16T00:51:18.416Z,5.48
2019-05-16T00:53:48.348Z,5.43
2019-05-16T00:56:18.591Z,5.02
2019-05-16T00:58:48.431Z,5.24
2019-05-16T01:01:19.044Z,5.23
2019-05-16T01:03:48.416Z,5.31
2019-05-16T01:06:22.458Z,5.34
2019-05-16T01:08:48.902Z,5.16
2019-05-16T01:11:18.582Z,5.09
2019-05-16T01:13:48.671Z,5.09
2019-05-16T01:16:19.444Z,5.05
2019-05-16T01:18:48.898Z,5.08
2019-05-16T01:21:18.641Z,4.95
2019-05-16T01:23:48.267Z,4.78
2019-05-16T01:26:18.553Z,4.78
2019-05-16T01:28:48.388Z,4.76
2019-05-16T01:31:19.093Z,4.83
2019-05-16T01:33:48.474Z,4.93
2019-05-16T01:36:26.300Z,4.98
2019-05-16T01:38:48.302Z,4.90
2019-05-16T01:41:18.061Z,4.82
2019-05-16T01:43:48.387Z,4.54
2019-05-16T01:46:18.184Z,4.48
2019-05-16T01:48:48.457Z,4.50
2019-05-16T01:51:18.386Z,4.56
2019-05-16T01:53:48.854Z,4.72
2019-05-16T01:56:18.170Z,4.85
2019-05-16T01:58:49.041Z,4.80
2019-05-16T02:01:19.008Z,4.83
2019-05-16T02:03:48.675Z,4.76
2019-05-16T02:06:18.497Z,4.82
2019-05-16T02:08:48.946Z,4.74
2019-05-16T02:11:18.263Z,4.71
2019-05-16T02:13:48.446Z,4.64
2019-05-16T02:16:18.735Z,4.54
2019-05-16T02:18:49.336Z,4.48
2019-05-16T02:21:18.467Z,4.49
2019-05-16T02:23:49.048Z,4.50
2019-05-16T02:26:19.127Z,4.43
2019-05-16T02:28:50.804Z,2.54
2019-05-16T02:31:22.835Z,4.35
2019-05-16T02:33:51.389Z,4.36
2019-05-16T02:36:21.776Z,4.34
2019-05-16T02:38:55.528Z,4.27
2019-05-16T02:41:23.356Z,4.27
2019-05-16T02:43:52.485Z,4.34
2019-05-16T02:46:21.968Z,4.32
2019-05-16T02:48:51.913Z,4.32
2019-05-16T02:51:21.556Z,4.32
2019-05-16T02:53:51.277Z,4.32
2019-05-16T02:56:21.188Z,4.34
2019-05-16T02:58:52.097Z,4.44
2019-05-16T03:01:21.857Z,4.42
2019-05-16T03:03:51.674Z,4.41
2019-05-16T03:06:22.595Z,4.45
2019-05-16T03:08:51.901Z,4.43
2019-05-16T03:11:21.511Z,4.51
2019-05-16T03:13:52.518Z,4.51
2019-05-16T03:16:23.078Z,4.57
2019-05-16T03:18:52.144Z,4.64
2019-05-16T03:21:21.758Z,4.65
2019-05-16T03:23:50.895Z,4.61
2019-05-16T03:26:21.011Z,4.58
2019-05-16T03:28:52.159Z,4.61
2019-05-16T03:31:24.509Z,4.47
2019-05-16T03:33:59.666Z,4.45
2019-05-16T03:36:24.985Z,4.37
2019-05-16T03:38:54.035Z,4.34
2019-05-16T03:41:23.122Z,4.27
2019-05-16T03:43:52.325Z,4.18
2019-05-16T03:46:21.776Z,4.12
2019-05-16T03:48:51.815Z,4.10
2019-05-16T03:51:21.889Z,4.08
2019-05-16T03:53:51.163Z,4.03
2019-05-16T03:56:21.793Z,4.06
2019-05-16T03:58:51.363Z,4.17
2019-05-16T04:01:21.052Z,4.20
2019-05-16T04:03:51.287Z,4.29
2019-05-16T04:06:22.068Z,4.38
2019-05-16T04:08:51.478Z,4.47
2019-05-16T04:11:23.421Z,4.52
2019-05-16T04:13:53.006Z,4.59
2019-05-16T04:16:22.129Z,4.67
2019-05-16T04:18:51.538Z,4.65
2019-05-16T04:21:21.908Z,4.31
2019-05-16T04:23:51.309Z,4.37
2019-05-16T04:26:21.739Z,4.43
2019-05-16T04:28:51.931Z,4.31
2019-05-16T04:31:21.969Z,4.45
2019-05-16T04:33:51.793Z,4.59
2019-05-16T04:36:21.526Z,4.76
2019-05-16T04:38:51.340Z,5.02
2019-05-16T04:41:21.291Z,5.25
2019-05-16T04:43:51.001Z,5.35
2019-05-16T04:46:21.407Z,5.46
2019-05-16T04:48:52.627Z,5.56
2019-05-16T04:51:22.250Z,5.66
2019-05-16T04:53:51.486Z,5.80
2019-05-16T04:56:21.669Z,5.93
2019-05-16T04:58:51.548Z,5.66
2019-05-16T05:01:21.658Z,6.12
2019-05-16T05:04:01.719Z,5.85
2019-05-16T05:06:21.762Z,6.52
2019-05-16T05:08:58.433Z,6.68
2019-05-16T05:11:21.844Z,6.70
2019-05-16T05:13:50.923Z,6.93
2019-05-16T05:16:20.488Z,7.13
2019-05-16T05:18:51.444Z,7.25
2019-05-16T05:21:21.042Z,7.61
2019-05-16T05:23:50.815Z,8.33
2019-05-16T05:26:20.163Z,7.89
2019-05-16T05:28:50.739Z,9.89
2019-05-16T05:31:24.623Z,9.14
2019-05-16T05:33:50.889Z,8.87
2019-05-16T05:36:20.979Z,9.71
2019-05-16T05:39:00.265Z,9.51
2019-05-16T05:41:21.132Z,9.85
2019-05-16T05:43:50.537Z,10.66
2019-05-16T05:46:20.424Z,12.03
2019-05-16T05:48:50.468Z,10.94
2019-05-16T05:51:20.684Z,11.28
2019-05-16T05:53:50.981Z,12.40
2019-05-16T05:56:21.542Z,13.58
2019-05-16T05:58:51.327Z,14.07
2019-05-16T06:01:22.157Z,14.04
2019-05-16T06:03:51.258Z,15.37
2019-05-16T06:06:21.709Z,15.15
2019-05-16T06:08:50.869Z,14.79
2019-05-16T06:11:20.545Z,15.74
2019-05-16T06:13:50.136Z,15.69
2019-05-16T06:16:20.377Z,15.97
2019-05-16T06:18:50.223Z,16.20
2019-05-16T06:21:20.378Z,16.73
2019-05-16T06:23:50.921Z,16.70
2019-05-16T06:26:21.671Z,15.50
2019-05-16T06:28:50.796Z,16.74
2019-05-16T06:31:22.164Z,16.56
2019-05-16T06:33:50.664Z,16.76
2019-05-16T06:36:20.383Z,17.04
2019-05-16T06:38:49.973Z,16.24
2019-05-16T06:41:19.919Z,16.00
2019-05-16T06:43:50.720Z,15.14
2019-05-16T06:46:21.225Z,14.86
2019-05-16T06:48:50.742Z,14.62
2019-05-16T06:51:20.136Z,14.19
2019-05-16T06:53:50.025Z,15.09
2019-05-16T06:56:20.025Z,15.89
2019-05-16T06:58:52.064Z,15.10
2019-05-16T07:01:20.931Z,15.09
2019-05-16T07:03:50.821Z,13.04
2019-05-16T07:06:45.702Z,14.84
2019-05-16T07:08:52.468Z,15.89
2019-05-16T07:11:21.519Z,16.81
2019-05-16T07:13:51.993Z,14.97
2019-05-16T07:16:22.583Z,14.67
2019-05-16T07:18:51.726Z,14.41
2019-05-16T07:21:20.894Z,14.66
2019-05-16T07:23:51.152Z,15.68
2019-05-16T07:26:20.666Z,16.34
2019-05-16T07:28:51.491Z,14.66
2019-05-16T07:31:22.600Z,15.43
2019-05-16T07:33:52.154Z,16.09
2019-05-16T07:36:22.473Z,15.07
2019-05-16T07:38:51.700Z,16.95
2019-05-16T07:41:20.877Z,16.80
2019-05-16T07:43:50.501Z,17.14
2019-05-16T07:46:20.609Z,17.69
2019-05-16T07:48:51.767Z,15.35
2019-05-16T07:51:20.734Z,13.69
2019-05-16T07:53:50.492Z,13.65
2019-05-16T07:56:31.012Z,15.33
2019-05-16T07:59:06.309Z,15.46
2019-05-16T08:01:35.556Z,16.34
2019-05-16T08:04:04.593Z,16.80
2019-05-16T08:06:35.086Z,15.95
2019-05-16T08:09:07.691Z,15.81
2019-05-16T08:11:36.307Z,16.65
2019-05-16T08:14:05.298Z,16.69
2019-05-16T08:16:35.684Z,16.91
2019-05-16T08:19:04.712Z,17.82
2019-05-16T08:21:33.827Z,17.91
2019-05-16T08:26:38.817Z,18.46
2019-05-16T08:29:04.577Z,17.17
2019-05-16T08:31:33.676Z,15.29
2019-05-16T08:34:02.688Z,14.63
2019-05-16T08:36:33.344Z,16.50
2019-05-16T08:39:02.410Z,15.65
2019-05-16T08:41:31.850Z,16.44
2019-05-16T08:44:01.355Z,15.96
2019-05-16T08:46:32.294Z,16.01
2019-05-16T08:49:01.432Z,16.01
2019-05-16T08:51:33.420Z,17.24
2019-05-16T08:54:01.744Z,15.86
2019-05-16T08:56:32.092Z,15.69
2019-05-16T08:59:02.689Z,17.01
2019-05-16T09:04:02.638Z,14.50
2019-05-16T09:06:33.085Z,15.04
2019-05-16T09:09:12.386Z,15.25
2019-05-16T09:10:26.225Z,18.57
2019-05-16T09:11:41.454Z,14.78
2019-05-16T09:14:03.844Z,16.51
2019-05-16T09:16:36.993Z,17.98
2019-05-16T09:18:39.117Z,15.74
2019-05-16T09:19:07.576Z,17.98
2019-05-16T09:21:38.469Z,16.40
2019-05-16T09:24:06.877Z,16.98
2019-05-16T09:26:38.300Z,16.07
2019-05-16T09:29:08.440Z,16.14
2019-05-16T09:31:38.686Z,17.02
2019-05-16T09:34:07.978Z,16.07
2019-05-16T09:36:38.533Z,17.28
2019-05-16T09:39:08.771Z,17.06
2019-05-16T09:41:47.621Z,17.17
2019-05-16T09:44:08.865Z,15.66
2019-05-16T09:46:39.168Z,17.55
2019-05-16T09:49:19.573Z,17.14
2019-05-16T09:51:39.067Z,17.06
2019-05-16T09:54:08.150Z,17.28
2019-05-16T09:56:37.289Z,16.75
2019-05-16T09:59:06.900Z,17.36
2019-05-16T10:01:37.044Z,15.60
2019-05-16T10:04:06.820Z,17.13
2019-05-16T10:06:37.212Z,14.98
2019-05-16T10:09:07.399Z,14.87
2019-05-16T10:11:41.767Z,15.31
2019-05-16T10:14:07.545Z,16.36
2019-05-16T10:16:38.033Z,14.51
2019-05-16T10:19:07.570Z,15.03
2019-05-16T10:21:37.163Z,14.47
2019-05-16T10:24:07.301Z,14.66
2019-05-16T10:26:37.186Z,14.76
2019-05-16T10:29:10.767Z,15.46
2019-05-16T10:31:45.863Z,15.83
2019-05-16T10:34:08.105Z,15.75
2019-05-16T10:36:38.474Z,14.64
2019-05-16T10:39:08.917Z,15.29
2019-05-16T10:41:37.979Z,15.03
2019-05-16T10:44:07.166Z,15.82
2019-05-16T10:46:37.694Z,15.85
2019-05-16T10:49:06.881Z,16.46
2019-05-16T10:51:37.709Z,17.60
2019-05-16T10:54:13.330Z,17.45
2019-05-16T10:56:40.526Z,16.60
2019-05-16T10:59:46.875Z,16.35
2019-05-16T11:01:40.503Z,16.17
2019-05-16T11:04:09.556Z,16.79
2019-05-16T11:06:39.944Z,17.56
2019-05-16T11:09:09.205Z,17.72
2019-05-16T11:11:38.207Z,17.88
2019-05-16T11:14:09.369Z,18.37
2019-05-16T11:16:38.074Z,19.96
2019-05-16T11:19:17.403Z,20.81
2019-05-16T11:21:37.973Z,21.18
2019-05-16T11:24:12.942Z,21.18
2019-05-16T11:26:37.823Z,19.81
2019-05-16T11:29:07.462Z,20.70
2019-05-16T11:31:37.369Z,21.96
2019-05-16T11:34:06.506Z,18.50
2019-05-16T11:36:37.608Z,18.18
2019-05-16T11:39:08.687Z,18.15
2019-05-16T11:41:38.039Z,18.83
2019-05-16T11:44:07.166Z,18.63
2019-05-16T11:46:37.701Z,19.95
2019-05-16T11:49:06.830Z,17.54
2019-05-16T11:51:38.198Z,19.42
2019-05-16T11:54:06.989Z,18.90
2019-05-16T11:56:37.013Z,20.04
2019-05-16T11:59:07.812Z,17.81
2019-05-16T12:01:37.076Z,17.96
2019-05-16T12:04:07.968Z,17.85
2019-05-16T12:06:38.784Z,19.99
2019-05-16T12:09:08.647Z,19.01
2019-05-16T12:11:38.332Z,21.19
2019-05-16T12:14:07.592Z,20.88
2019-05-16T12:16:38.015Z,21.02
2019-05-16T12:19:07.299Z,21.25
2019-05-16T12:21:36.433Z,20.98
2019-05-16T12:24:07.431Z,21.61
2019-05-16T12:26:37.269Z,20.98
2019-05-16T12:29:06.999Z,20.16
2019-05-16T12:31:37.401Z,19.38
2019-05-16T12:34:09.468Z,19.84
2019-05-16T12:36:39.397Z,17.48
2019-05-16T12:39:09.015Z,17.19
2019-05-16T12:41:40.903Z,19.33
2019-05-16T12:44:09.126Z,18.72
2019-05-16T12:46:39.384Z,17.46
2019-05-16T12:49:08.520Z,18.44
2019-05-16T12:51:37.588Z,19.35
2019-05-16T12:54:07.551Z,18.35
2019-05-16T12:56:37.676Z,18.51
2019-05-16T12:59:06.936Z,20.54
2019-05-16T13:01:38.473Z,19.75
2019-05-16T13:04:06.968Z,20.04
2019-05-16T13:06:37.105Z,18.57
2019-05-16T13:09:07.481Z,19.84
2019-05-16T13:11:37.715Z,19.86
2019-05-16T13:14:10.954Z,20.11
2019-05-16T13:16:38.886Z,19.12
2019-05-16T13:19:07.882Z,21.22
2019-05-16T13:21:38.076Z,19.02
2019-05-16T13:24:07.351Z,20.83
2019-05-16T13:26:37.446Z,19.91
2019-05-16T13:29:07.539Z,18.93
2019-05-16T13:31:37.791Z,18.99
2019-05-16T13:34:07.471Z,18.72
2019-05-16T13:36:38.878Z,19.29
2019-05-16T13:39:08.582Z,19.75
2019-05-16T13:41:38.023Z,19.31
2019-05-16T13:44:17.660Z,18.51
2019-05-16T13:46:39.120Z,18.92
2019-05-16T13:49:08.229Z,17.83
2019-05-16T13:51:37.500Z,18.53
2019-05-16T13:54:07.035Z,18.63
2019-05-16T13:56:37.742Z,19.98
2019-05-16T13:59:07.686Z,20.37
2019-05-16T14:01:37.141Z,19.55
2019-05-16T14:04:09.675Z,20.00
2019-05-16T14:06:41.454Z,20.02
2019-05-16T14:09:09.028Z,20.53
2019-05-16T14:11:38.173Z,19.86
2019-05-16T14:14:07.243Z,19.56
2019-05-16T14:16:37.755Z,19.55
2019-05-16T14:19:07.547Z,19.26
2019-05-16T14:21:36.745Z,18.40
2019-05-16T14:24:08.609Z,18.66
2019-05-16T14:26:38.131Z,18.30
2019-05-16T14:29:08.077Z,18.80
2019-05-16T14:31:37.800Z,18.20
2019-05-16T14:34:06.905Z,18.49
2019-05-16T14:36:37.688Z,19.13
2019-05-16T14:39:07.814Z,18.97
2019-05-16T14:41:37.434Z,19.22
2019-05-16T14:44:06.711Z,19.50
2019-05-16T14:46:38.195Z,19.49
2019-05-16T14:49:07.702Z,19.56
2019-05-16T14:51:38.605Z,19.33
2019-05-16T14:54:08.078Z,18.89
2019-05-16T14:56:38.890Z,17.66
2019-05-16T14:59:08.431Z,17.65
2019-05-16T15:01:38.014Z,17.21
2019-05-16T15:04:07.513Z,17.20
2019-05-16T15:06:37.517Z,17.51
2019-05-16T15:09:08.165Z,18.21
2019-05-16T15:11:37.448Z,17.87
2019-05-16T15:14:07.148Z,17.58
2019-05-16T15:16:36.347Z,17.86
2019-05-16T15:19:07.977Z,18.56
2019-05-16T15:21:36.443Z,18.46
2019-05-16T15:24:06.913Z,17.41
2019-05-16T15:26:37.682Z,18.12
2019-05-16T15:29:08.101Z,18.34
2019-05-16T15:31:39.489Z,18.05
2019-05-16T15:34:08.374Z,18.42
2019-05-16T15:36:38.780Z,18.23
2019-05-16T15:39:08.855Z,17.97
2019-05-16T15:41:38.035Z,17.77
2019-05-16T15:44:07.771Z,17.30
2019-05-16T15:46:37.193Z,17.43
2019-05-16T15:49:09.590Z,17.43
2019-05-16T15:51:37.211Z,17.97
2019-05-16T15:54:06.787Z,17.85
2019-05-16T15:56:37.375Z,17.65
2019-05-16T15:59:09.751Z,17.70
2019-05-16T16:01:37.885Z,17.57
2019-05-16T16:04:07.166Z,17.56
2019-05-16T16:06:37.989Z,17.68
2019-05-16T16:09:07.594Z,17.55
2019-05-16T16:11:37.493Z,17.54
2019-05-16T16:14:07.067Z,17.37
2019-05-16T16:16:36.331Z,17.18
2019-05-16T16:19:06.592Z,17.42
2019-05-16T16:21:38.021Z,17.81
2019-05-16T16:24:09.195Z,17.84
2019-05-16T16:26:39.252Z,17.64
2019-05-16T16:29:08.396Z,17.77
2019-05-16T16:31:37.615Z,17.64
2019-05-16T16:34:07.576Z,17.37
2019-05-16T16:36:36.904Z,17.32
2019-05-16T16:39:08.046Z,17.86
2019-05-16T16:41:37.834Z,17.73
2019-05-16T16:44:07.638Z,17.96
2019-05-16T16:46:38.392Z,18.07
2019-05-16T16:49:07.698Z,17.00
2019-05-16T16:51:37.593Z,17.87
2019-05-16T16:54:07.645Z,17.88
2019-05-16T16:56:37.222Z,17.71
2019-05-16T16:59:06.560Z,17.65
2019-05-16T17:01:37.387Z,17.05
2019-05-16T17:04:07.026Z,17.55
2019-05-16T17:06:37.528Z,17.54
2019-05-16T17:09:07.661Z,17.76
2019-05-16T17:11:37.217Z,17.81
2019-05-16T17:14:06.908Z,17.74
2019-05-16T17:16:37.770Z,17.51
2019-05-16T17:19:07.708Z,17.64
2019-05-16T17:21:36.958Z,17.09
2019-05-16T17:24:06.492Z,16.91
2019-05-16T17:26:37.837Z,17.17
2019-05-16T17:29:06.667Z,16.82
2019-05-16T17:31:35.924Z,16.82
2019-05-16T17:34:08.125Z,17.08
2019-05-16T17:36:37.366Z,17.07
2019-05-16T17:39:06.774Z,16.86
2019-05-16T17:41:36.837Z,16.86
2019-05-16T17:44:06.965Z,16.90
2019-05-16T17:46:40.157Z,16.89
2019-05-16T17:49:07.455Z,16.97
2019-05-16T17:51:36.908Z,16.75
2019-05-16T17:54:06.728Z,16.73
2019-05-16T17:56:37.004Z,16.81
2019-05-16T17:59:07.269Z,16.55
2019-05-16T18:01:38.572Z,16.26
2019-05-16T18:04:08.830Z,16.35
2019-05-16T18:06:37.894Z,16.37
2019-05-16T18:09:08.382Z,15.96
2019-05-16T18:11:37.586Z,16.09
2019-05-16T18:14:06.685Z,16.02
2019-05-16T18:16:51.701Z,15.98
2019-05-16T18:19:07.115Z,15.80
2019-05-16T18:21:39.119Z,15.95
2019-05-16T18:24:08.453Z,15.87
2019-05-16T18:26:37.724Z,15.67
2019-05-16T18:29:07.917Z,15.37
2019-05-16T18:31:38.318Z,15.44
2019-05-16T18:34:07.560Z,15.47
2019-05-16T18:36:36.746Z,15.18
2019-05-16T18:39:07.360Z,15.10
2019-05-16T18:41:36.668Z,14.98
2019-05-16T18:44:05.785Z,14.90
2019-05-16T18:46:36.423Z,14.81
2019-05-16T18:49:07.245Z,14.54
2019-05-16T18:51:37.043Z,14.22
2019-05-16T18:54:07.720Z,14.20
2019-05-16T18:56:37.048Z,14.26
2019-05-16T18:59:06.338Z,14.05
2019-05-16T19:01:37.553Z,14.01
2019-05-16T19:04:06.958Z,13.93
2019-05-16T19:06:37.021Z,13.94
2019-05-16T19:09:07.288Z,13.85
2019-05-16T19:11:37.905Z,13.96
2019-05-16T19:14:07.723Z,13.77
2019-05-16T19:16:36.928Z,13.71
2019-05-16T19:19:07.415Z,13.62
2019-05-16T19:21:36.903Z,13.50
2019-05-16T19:24:07.009Z,13.43
2019-05-16T19:26:37.332Z,13.25
2019-05-16T19:29:07.776Z,13.09
2019-05-16T19:31:39.206Z,13.03
2019-05-16T19:34:08.416Z,12.79
2019-05-16T19:36:39.264Z,12.92
2019-05-16T19:39:08.705Z,12.74
2019-05-16T19:41:39.383Z,12.65
2019-05-16T19:44:08.477Z,12.70
2019-05-16T19:46:38.829Z,12.59
2019-05-16T19:49:08.209Z,12.38
2019-05-16T19:51:37.268Z,12.20
2019-05-16T19:54:07.211Z,12.08
2019-05-16T19:56:37.549Z,11.95
2019-05-16T19:59:06.845Z,11.97
2019-05-16T20:01:36.880Z,11.70
2019-05-16T20:04:06.202Z,11.52
2019-05-16T20:06:36.946Z,11.49
2019-05-16T20:09:08.402Z,11.69
2019-05-16T20:11:38.776Z,11.69
2019-05-16T20:14:08.084Z,11.64
2019-05-16T20:16:37.189Z,11.48
2019-05-16T20:19:06.330Z,11.21
2019-05-16T20:21:36.941Z,11.01
2019-05-16T20:24:07.491Z,11.28
2019-05-16T20:26:36.895Z,11.27
2019-05-16T20:29:07.676Z,10.45
2019-05-16T20:31:38.293Z,11.15
2019-05-16T20:34:09.451Z,11.19
2019-05-16T20:36:38.381Z,11.20
2019-05-16T20:39:08.596Z,11.18
2019-05-16T20:41:39.152Z,11.11
2019-05-16T20:44:08.320Z,11.11
2019-05-16T20:46:37.447Z,11.11
2019-05-16T20:49:07.694Z,11.08
2019-05-16T20:51:37.631Z,10.86
2019-05-16T20:54:07.218Z,10.92
2019-05-16T20:56:36.368Z,10.73
2019-05-16T20:59:07.049Z,10.67
2019-05-16T21:01:36.231Z,10.81
2019-05-16T21:04:07.027Z,10.76
2019-05-16T21:06:36.178Z,10.77
2019-05-16T21:09:06.834Z,10.84
2019-05-16T21:11:37.063Z,10.88
2019-05-16T21:14:07.127Z,10.79
2019-05-16T21:16:38.032Z,10.84
2019-05-16T21:19:07.232Z,10.83
2019-05-16T21:21:37.661Z,10.81
2019-05-16T21:24:07.080Z,10.92
2019-05-16T21:26:36.911Z,10.93
2019-05-16T21:29:07.507Z,11.10
2019-05-16T21:31:38.228Z,10.91
2019-05-16T21:34:07.323Z,10.76
2019-05-16T21:36:36.795Z,10.80
2019-05-16T21:39:08.541Z,10.80
2019-05-16T21:41:39.396Z,10.75
2019-05-16T21:44:08.465Z,10.74
2019-05-16T21:46:37.608Z,10.64
2019-05-16T21:49:07.494Z,10.69
2019-05-16T21:51:37.797Z,10.61
2019-05-16T21:54:07.246Z,10.42
2019-05-16T21:56:37.281Z,10.36
2019-05-16T21:59:07.107Z,10.30
2019-05-16T22:01:37.317Z,10.19
2019-05-16T22:04:07.341Z,8.36
2019-05-16T22:06:36.755Z,10.02
2019-05-16T22:09:07.204Z,9.99
2019-05-16T22:11:37.175Z,9.98
2019-05-16T22:14:06.597Z,10.02
2019-05-16T22:16:37.041Z,9.99
2019-05-16T22:19:07.085Z,9.86
2019-05-16T22:21:36.334Z,9.87
2019-05-16T22:24:06.579Z,9.73
2019-05-16T22:26:35.762Z,9.51
2019-05-16T22:29:06.908Z,9.47
2019-05-16T22:31:36.639Z,9.44
2019-05-16T22:34:07.580Z,9.44
2019-05-16T22:36:37.161Z,9.31
2019-05-16T22:39:07.212Z,9.38
2019-05-16T22:41:37.495Z,9.44
2019-05-16T22:44:08.822Z,9.49
2019-05-16T22:46:37.479Z,9.40
2019-05-16T22:49:07.601Z,9.37
2019-05-16T22:51:37.746Z,9.31
2019-05-16T22:54:07.674Z,9.27
2019-05-16T22:56:37.522Z,9.11
2019-05-16T22:59:07.309Z,9.01
2019-05-16T23:01:37.620Z,9.02
2019-05-16T23:04:07.226Z,8.86
2019-05-16T23:06:36.394Z,8.74
2019-05-16T23:09:07.046Z,8.67
2019-05-16T23:11:36.417Z,8.68
2019-05-16T23:14:06.332Z,8.71
2019-05-16T23:16:37.425Z,8.70
2019-05-16T23:19:06.735Z,8.67
2019-05-16T23:21:36.771Z,8.55
2019-05-16T23:24:06.684Z,8.57
2019-05-16T23:26:36.358Z,8.50
2019-05-16T23:29:05.518Z,8.42
2019-05-16T23:31:36.555Z,8.28
2019-05-16T23:34:07.113Z,8.24
2019-05-16T23:36:37.124Z,8.19
2019-05-16T23:39:08.244Z,7.96
2019-05-16T23:41:38.732Z,8.07
2019-05-16T23:44:07.845Z,8.15
2019-05-16T23:46:37.555Z,8.21
2019-05-16T23:49:07.237Z,8.21
2019-05-16T23:51:36.851Z,8.13
2019-05-16T23:54:06.723Z,7.97
2019-05-16T23:56:37.224Z,7.97
2019-05-16T23:59:06.714Z,8.05
